createdAt,value
2023-01-10T00:00:24.280Z,99347.78
2023-01-10T00:02:28.935Z,99347.02
2023-01-10T00:04:33.562Z,99352.14
2023-01-10T00:06:38.022Z,99350.89
2023-01-10T00:08:42.426Z,99354.61
2023-01-10T00:10:46.801Z,99360.92
2023-01-10T00:12:51.176Z,99354.5
2023-01-10T00:14:55.683Z,99354.5
2023-01-10T00:17:00.106Z,99350.31
2023-01-10T00:19:04.587Z,99350.3
2023-01-10T00:21:08.925Z,99354.81
2023-01-10T00:23:13.250Z,99361.51
2023-01-10T00:25:17.710Z,99360.8
2023-01-10T00:27:22.044Z,99361.06
2023-01-10T00:29:26.405Z,99362.97
2023-01-10T00:31:30.872Z,99364.38
2023-01-10T00:33:35.340Z,99366.92
2023-01-10T00:35:39.717Z,99365.22
2023-01-10T00:37:44.116Z,99365.6
2023-01-10T00:39:48.453Z,99367.33
2023-01-10T00:41:52.806Z,99369.82
2023-01-10T00:43:57.213Z,99372.7
2023-01-10T00:46:01.648Z,99370.81
2023-01-10T00:48:06.173Z,99367.66
2023-01-10T00:50:10.523Z,99372.13
2023-01-10T00:52:14.892Z,99374.09
2023-01-10T00:54:19.236Z,99376.91
2023-01-10T00:56:23.628Z,99382.07
2023-01-10T00:58:27.977Z,99388.05
2023-01-10T01:00:32.316Z,99389.55
2023-01-10T01:02:36.815Z,99389.59
2023-01-10T01:04:41.228Z,99397.03
2023-01-10T01:06:45.570Z,99401.28
2023-01-10T01:08:50.007Z,99405.05
2023-01-10T01:10:54.362Z,99399.59
2023-01-10T01:12:58.732Z,99411.14
2023-01-10T01:15:03.094Z,99410.3
2023-01-10T01:17:07.466Z,99411.55
2023-01-10T01:19:11.821Z,99420.98
2023-01-10T01:21:16.233Z,99415.56
2023-01-10T01:23:20.629Z,99417.89
2023-01-10T01:25:25.052Z,99418.67
2023-01-10T01:27:29.404Z,99420.8
2023-01-10T01:29:44.410Z,99426.2
2023-01-10T01:31:48.887Z,99429.38
2023-01-10T01:33:53.290Z,99431.92
2023-01-10T01:35:57.609Z,99434.79
2023-01-10T01:38:02.024Z,99431.16
2023-01-10T01:40:06.503Z,99432.83
2023-01-10T01:42:10.852Z,99436.89
2023-01-10T01:44:15.190Z,99435.59
2023-01-10T01:46:19.592Z,99438.3
2023-01-10T01:48:24.028Z,99434.55
2023-01-10T01:50:28.360Z,99435.94
2023-01-10T01:52:32.765Z,99436.63
2023-01-10T01:54:37.096Z,99438.02
2023-01-10T01:56:41.445Z,99440.25
2023-01-10T01:58:45.843Z,99442.64
2023-01-10T02:00:50.520Z,99445.51
2023-01-10T02:03:03.761Z,99445.61
2023-01-10T02:05:08.333Z,99444.88
2023-01-10T02:07:12.661Z,99453.35
2023-01-10T02:09:17.076Z,99453.41
2023-01-10T02:11:21.394Z,99453.31
2023-01-10T02:13:25.754Z,99456.77
2023-01-10T02:15:30.118Z,99456.05
2023-01-10T02:17:34.485Z,99456.6
2023-01-10T02:19:38.838Z,99456.22
2023-01-10T02:21:43.207Z,99456.41
2023-01-10T02:23:47.539Z,99458.57
2023-01-10T02:25:51.897Z,99456.92
2023-01-10T02:27:56.225Z,99460.89
2023-01-10T02:30:00.551Z,99461.92
2023-01-10T02:32:04.901Z,99467.27
2023-01-10T02:34:09.302Z,99465.75
2023-01-10T02:36:13.739Z,99467.33
2023-01-10T02:38:18.127Z,99473.3
2023-01-10T02:40:22.562Z,99480.23
2023-01-10T02:42:27.009Z,99481.08
2023-01-10T02:44:31.415Z,99483.41
2023-01-10T02:46:35.885Z,99483.7
2023-01-10T02:48:40.317Z,99490.41
2023-01-10T02:50:44.716Z,99492.19
2023-01-10T02:52:49.213Z,99500.94
2023-01-10T02:54:53.565Z,99502.94
2023-01-10T02:56:57.898Z,99516.7
2023-01-10T02:59:02.245Z,99513.45
2023-01-10T03:01:06.852Z,99517.77
2023-01-10T03:03:11.399Z,99521.69
2023-01-10T03:05:15.778Z,99519.33
2023-01-10T03:07:20.247Z,99523.99
2023-01-10T03:09:24.547Z,99528.69
2023-01-10T03:11:28.921Z,99532.34
2023-01-10T03:13:33.241Z,99536.7
2023-01-10T03:15:37.595Z,99537.63
2023-01-10T03:17:41.979Z,99536.72
2023-01-10T03:19:46.404Z,99539.55
2023-01-10T03:21:50.821Z,99542.25
2023-01-10T03:23:55.155Z,99550.25
2023-01-10T03:25:59.513Z,99552.64
2023-01-10T03:28:03.881Z,99556.48
2023-01-10T03:30:08.247Z,99569.43
2023-01-10T03:32:12.690Z,99574.47
2023-01-10T03:34:17.077Z,99577.17
2023-01-10T03:36:21.430Z,99580.39
2023-01-10T03:38:25.767Z,99582.31
2023-01-10T03:40:30.260Z,99585.72
2023-01-10T03:42:34.585Z,99588.73
2023-01-10T03:44:38.974Z,99587.77
2023-01-10T03:46:43.448Z,99587.41
2023-01-10T03:48:47.927Z,99596.06
2023-01-10T03:50:52.259Z,99601.41
2023-01-10T03:52:56.670Z,99610.39
2023-01-10T03:55:01.142Z,99609.33
2023-01-10T03:57:05.714Z,99611.28
2023-01-10T03:59:10.174Z,99614.91
2023-01-10T04:01:14.976Z,99613.75
2023-01-10T04:03:19.723Z,99614.71
2023-01-10T04:05:24.146Z,99619.21
2023-01-10T04:07:28.557Z,99623.28
2023-01-10T04:09:32.871Z,99621.23
2023-01-10T04:11:37.206Z,99628.57
2023-01-10T04:13:41.579Z,99629.77
2023-01-10T04:15:45.972Z,99631.98
2023-01-10T04:17:50.321Z,99630.75
2023-01-10T04:19:54.661Z,99634.55
2023-01-10T04:21:59.065Z,99635.05
2023-01-10T04:24:03.441Z,99637.47
2023-01-10T04:26:07.838Z,99642.06
2023-01-10T04:28:12.173Z,99644.27
2023-01-10T04:30:16.577Z,99649.77
2023-01-10T04:32:20.914Z,99658.7
2023-01-10T04:34:25.260Z,99660.95
2023-01-10T04:36:29.597Z,99667.64
2023-01-10T04:38:33.928Z,99668.48
2023-01-10T04:40:38.314Z,99671.06
2023-01-10T04:44:13.193Z,99677.93
2023-01-10T04:46:17.555Z,99680.46
2023-01-10T04:48:21.969Z,99685.52
2023-01-10T04:50:26.346Z,99689.97
2023-01-10T04:52:30.711Z,99692.36
2023-01-10T04:54:35.175Z,99699.02
2023-01-10T04:56:39.656Z,99698.9
2023-01-10T04:58:44.019Z,99710.09
2023-01-10T05:00:48.370Z,99710.05
2023-01-10T05:02:52.971Z,99716.69
2023-01-10T05:04:57.495Z,99720.06
2023-01-10T05:07:01.931Z,99723.3
2023-01-10T05:09:06.279Z,99729.39
2023-01-10T05:11:10.615Z,99735.88
2023-01-10T05:13:15.010Z,99735.34
2023-01-10T05:15:19.390Z,99734.06
2023-01-10T05:17:23.760Z,99735.55
2023-01-10T05:19:28.096Z,99743.46
2023-01-10T05:21:32.473Z,99745.27
2023-01-10T05:23:36.857Z,99748.98
2023-01-10T05:25:41.231Z,99758.33
2023-01-10T05:27:45.599Z,99762.34
2023-01-10T05:29:50.113Z,99764.64
2023-01-10T05:31:54.689Z,99769.45
2023-01-10T05:33:59.146Z,99770.2
2023-01-10T05:36:03.582Z,99773.78
2023-01-10T05:38:07.936Z,99776.38
2023-01-10T05:40:12.412Z,99785.44
2023-01-10T05:42:16.778Z,99787.27
2023-01-10T05:44:21.237Z,99786.89
2023-01-10T05:46:25.582Z,99785.91
2023-01-10T05:48:29.961Z,99787.48
2023-01-10T05:50:34.477Z,99792.75
2023-01-10T05:52:38.895Z,99798.35
2023-01-10T05:54:43.377Z,99803.45
2023-01-10T05:56:47.705Z,99806.22
2023-01-10T05:59:06.537Z,99813.18
2023-01-10T06:01:30.678Z,99813.44
2023-01-10T06:03:35.081Z,99824.67
2023-01-10T06:05:39.501Z,99816.5
2023-01-10T06:07:43.880Z,99822.95
2023-01-10T06:09:48.180Z,99825.71
2023-01-10T06:11:52.537Z,99832.2
2023-01-10T06:13:56.813Z,99836.94
2023-01-10T06:16:01.428Z,99848.33
2023-01-10T06:18:05.859Z,99850.69
2023-01-10T06:20:10.226Z,99855.83
2023-01-10T06:22:14.595Z,99856.8
2023-01-10T06:24:18.965Z,99861.65
2023-01-10T06:26:23.364Z,99866.89
2023-01-10T06:28:27.733Z,99869.09
2023-01-10T06:30:32.200Z,99875.05
2023-01-10T06:32:36.610Z,99878.16
2023-01-10T06:34:40.978Z,99885.23
2023-01-10T06:36:45.328Z,99891.2
2023-01-10T06:38:49.723Z,99892.83
2023-01-10T06:40:54.027Z,99889.19
2023-01-10T06:42:58.342Z,99895.33
2023-01-10T06:45:02.675Z,99903.1
2023-01-10T06:47:06.994Z,99909.78
2023-01-10T06:49:11.542Z,99917.33
2023-01-10T06:51:15.904Z,99926.25
2023-01-10T06:53:23.360Z,99927.91
2023-01-10T06:55:27.734Z,99931.65
2023-01-10T06:57:32.149Z,99936.58
2023-01-10T06:59:36.591Z,99939.36
2023-01-10T07:01:41.216Z,99940.86
2023-01-10T07:03:45.899Z,99948.97
2023-01-10T07:05:50.359Z,99949.57
2023-01-10T07:07:54.856Z,99956.69
2023-01-10T07:09:59.233Z,99958.95
2023-01-10T07:12:03.647Z,99960.38
2023-01-10T07:14:08.080Z,99964.38
2023-01-10T07:16:12.639Z,99963.92
2023-01-10T07:18:17.169Z,99966.84
2023-01-10T07:20:21.547Z,99970.81
2023-01-10T07:22:25.888Z,99975.93
2023-01-10T07:24:30.233Z,99973.24
2023-01-10T07:26:34.607Z,99978.03
2023-01-10T07:28:39.014Z,99979.53
2023-01-10T07:30:43.481Z,99985.31
2023-01-10T07:32:47.862Z,99984.45
2023-01-10T07:34:52.217Z,99989.55
2023-01-10T07:36:56.579Z,99991.16
2023-01-10T07:39:01.049Z,99993.8
2023-01-10T07:41:05.449Z,99991.73
2023-01-10T07:43:09.890Z,99998.43
2023-01-10T07:45:14.248Z,100003.33
2023-01-10T07:47:18.652Z,100006.88
2023-01-10T07:49:23.021Z,100011.45
2023-01-10T07:51:27.524Z,100009.45
2023-01-10T07:53:31.957Z,100015.65
2023-01-10T07:55:36.383Z,100017.35
2023-01-10T07:57:40.879Z,100023.2
2023-01-10T07:59:45.292Z,100023.56
2023-01-10T08:01:49.712Z,100033.09
2023-01-10T08:03:54.380Z,100037.02
2023-01-10T08:05:58.930Z,100035.91
2023-01-10T08:08:03.442Z,100048.54
2023-01-10T08:10:07.847Z,100048.51
2023-01-10T08:12:12.381Z,100052.06
2023-01-10T08:14:16.897Z,100056.61
2023-01-10T08:16:21.443Z,100054.63
2023-01-10T08:18:26.130Z,100066.23
2023-01-10T08:20:32.034Z,100066.64
2023-01-10T08:22:36.444Z,100066.66
2023-01-10T08:24:40.894Z,100070.73
2023-01-10T08:26:45.334Z,100072.92
2023-01-10T08:28:49.754Z,100076.26
2023-01-10T08:30:54.288Z,100075.85
2023-01-10T08:32:58.784Z,100081.27
2023-01-10T08:35:03.208Z,100081.2
2023-01-10T08:37:07.615Z,100082.72
2023-01-10T08:39:12.040Z,100082.2
2023-01-10T08:41:16.478Z,100079.91
2023-01-10T08:43:20.902Z,100084.14
2023-01-10T08:45:25.345Z,100080.93
2023-01-10T08:47:30.234Z,100079.73
2023-01-10T08:49:34.670Z,100090.59
2023-01-10T08:51:39.098Z,100091.27
2023-01-10T08:53:43.489Z,100090.38
2023-01-10T08:55:47.951Z,100094.57
2023-01-10T08:57:52.380Z,100098.33
2023-01-10T08:59:56.765Z,100101.84
2023-01-10T09:02:01.397Z,100103.33
2023-01-10T09:04:06.049Z,100102.8
2023-01-10T09:06:10.572Z,100103.48
2023-01-10T09:08:15.037Z,100107.22
2023-01-10T09:10:19.461Z,100113.79
2023-01-10T09:12:23.905Z,100119.45
2023-01-10T09:14:28.299Z,100123.21
2023-01-10T09:16:32.858Z,100123.33
2023-01-10T09:18:37.384Z,100125.84
2023-01-10T09:20:41.864Z,100129.31
2023-01-10T09:22:46.580Z,100129.19
2023-01-10T09:24:51.057Z,100136.08
2023-01-10T09:26:55.460Z,100137.91
2023-01-10T09:28:59.857Z,100139.21
2023-01-10T09:31:04.593Z,100142.63
2023-01-10T09:33:09.234Z,100141.69
2023-01-10T09:35:13.648Z,100145.81
2023-01-10T09:37:18.066Z,100150.27
2023-01-10T09:39:22.533Z,100152.8
2023-01-10T09:41:26.935Z,100152.69
2023-01-10T09:43:31.397Z,100158.07
2023-01-10T09:45:35.802Z,100159.69
2023-01-10T09:47:40.227Z,100165.54
2023-01-10T09:49:44.694Z,100168.69
2023-01-10T09:51:49.147Z,100164.66
2023-01-10T09:53:55.761Z,100167.72
2023-01-10T09:56:14.606Z,100170.21
2023-01-10T09:58:19.062Z,100174.27
2023-01-10T10:00:23.503Z,100177.14
2023-01-10T10:02:27.929Z,100178.19
2023-01-10T10:04:32.482Z,100181.11
2023-01-10T10:06:37.001Z,100184.28
2023-01-10T10:08:41.480Z,100191.92
2023-01-10T10:10:46.000Z,100192.65
2023-01-10T10:12:50.516Z,100196.25
2023-01-10T10:14:54.939Z,100195.57
2023-01-10T10:16:59.460Z,100198.84
2023-01-10T10:19:03.917Z,100202.91
2023-01-10T10:21:08.599Z,100204.38
2023-01-10T10:23:13.037Z,100206.52
2023-01-10T10:25:17.488Z,100210.17
2023-01-10T10:27:22.254Z,100215.44
2023-01-10T10:29:26.687Z,100215.47
2023-01-10T10:31:31.227Z,100213.72
2023-01-10T10:33:35.758Z,100217.05
2023-01-10T10:35:40.170Z,100218.38
2023-01-10T10:37:44.597Z,100220.13
2023-01-10T10:39:49.012Z,100217.5
2023-01-10T10:41:53.480Z,100214.88
2023-01-10T10:43:57.870Z,100219.02
2023-01-10T10:46:02.472Z,100221.2
2023-01-10T10:48:07.015Z,100220.14
2023-01-10T10:50:11.503Z,100219.56
2023-01-10T10:52:15.939Z,100224.52
2023-01-10T10:54:20.472Z,100227.45
2023-01-10T10:56:25.013Z,100225.78
2023-01-10T10:58:29.428Z,100226.7
2023-01-10T11:00:33.934Z,100228.98
2023-01-10T11:02:38.445Z,100227.17
2023-01-10T11:04:43.005Z,100231.83
2023-01-10T11:06:47.705Z,100228.75
2023-01-10T11:08:52.198Z,100223.63
2023-01-10T11:10:56.665Z,100223.29
2023-01-10T11:13:01.154Z,100216.95
2023-01-10T11:15:05.609Z,100218.59
2023-01-10T11:17:10.043Z,100220.83
2023-01-10T11:19:14.442Z,100228.11
2023-01-10T11:21:23.927Z,100224.46
2023-01-10T11:23:29.683Z,100224.25
2023-01-10T11:25:34.065Z,100222.47
2023-01-10T11:27:38.542Z,100227.14
2023-01-10T11:29:42.975Z,100225.5
2023-01-10T11:31:47.566Z,100224.75
2023-01-10T11:33:52.057Z,100229.81
2023-01-10T11:35:56.480Z,100234.05
2023-01-10T11:38:00.869Z,100245.2
2023-01-10T11:40:05.324Z,100249.49
2023-01-10T11:42:09.797Z,100252.22
2023-01-10T11:44:14.188Z,100256.25
2023-01-10T11:46:18.810Z,100258.39
2023-01-10T11:49:03.542Z,100253.73
2023-01-10T11:51:11.220Z,100258.2
2023-01-10T11:53:15.637Z,100261.97
2023-01-10T11:55:20.206Z,100263.31
2023-01-10T11:57:24.663Z,100259.27
2023-01-10T11:59:29.150Z,100265.05
2023-01-10T12:01:33.724Z,100265.18
2023-01-10T12:03:38.345Z,100267.96
2023-01-10T12:05:42.762Z,100273.73
2023-01-10T12:07:47.166Z,100274.75
2023-01-10T12:09:51.549Z,100276.39
2023-01-10T12:11:55.968Z,100271.59
2023-01-10T12:14:00.533Z,100280.2
2023-01-10T12:16:05.046Z,100283.92
2023-01-10T12:18:09.463Z,100292.5
2023-01-10T12:20:13.981Z,100287.66
2023-01-10T12:22:18.408Z,100290.62
2023-01-10T12:24:22.898Z,100287.81
2023-01-10T12:26:27.325Z,100290.91
2023-01-10T12:28:31.746Z,100288.56
2023-01-10T12:30:36.445Z,100291.5
2023-01-10T12:32:41.085Z,100287.7
2023-01-10T12:34:45.583Z,100294.15
2023-01-10T12:36:49.984Z,100294.3
2023-01-10T12:38:54.410Z,100301.89
2023-01-10T12:40:59.854Z,100304.09
2023-01-10T12:43:04.387Z,100308.58
2023-01-10T12:45:08.906Z,100313.45
2023-01-10T12:47:14.829Z,100320.81
2023-01-10T12:49:19.272Z,100320.31
2023-01-10T12:51:23.646Z,100324.7
2023-01-10T12:53:28.119Z,100322.8
2023-01-10T12:55:32.606Z,100320.89
2023-01-10T12:57:37.029Z,100323.81
2023-01-10T12:59:41.526Z,100324.5
2023-01-10T13:01:46.217Z,100326.84
2023-01-10T13:03:50.864Z,100332.74
2023-01-10T13:05:55.358Z,100339.18
2023-01-10T13:07:59.741Z,100340.39
2023-01-10T13:10:04.278Z,100341.53
2023-01-10T13:12:08.707Z,100338.53
2023-01-10T13:14:13.181Z,100345.09
2023-01-10T13:16:17.709Z,100350.5
2023-01-10T13:18:22.121Z,100350.73
2023-01-10T13:20:26.545Z,100347.79
2023-01-10T13:22:30.920Z,100353.53
2023-01-10T13:24:35.330Z,100353.13
2023-01-10T13:26:39.752Z,100359.23
2023-01-10T13:28:44.248Z,100364.84
2023-01-10T13:30:48.762Z,100370.89
2023-01-10T13:32:53.247Z,100374.53
2023-01-10T13:34:57.673Z,100377.75
2023-01-10T13:37:02.103Z,100377.44
2023-01-10T13:39:06.494Z,100381.2
2023-01-10T13:41:10.916Z,100384
2023-01-10T13:43:15.634Z,100384.05
2023-01-10T13:45:20.059Z,100393.7
2023-01-10T13:47:24.590Z,100393.5
2023-01-10T13:49:29.006Z,100401.55
2023-01-10T13:51:33.530Z,100402.13
2023-01-10T13:53:37.918Z,100404.81
2023-01-10T13:55:42.331Z,100408.59
2023-01-10T13:57:46.741Z,100410.31
2023-01-10T13:59:51.173Z,100414.47
2023-01-10T14:01:56.156Z,100424.36
2023-01-10T14:04:00.839Z,100435.57
2023-01-10T14:06:05.370Z,100427.75
2023-01-10T14:08:09.891Z,100426.13
2023-01-10T14:10:14.349Z,100423.77
2023-01-10T14:12:18.806Z,100425.37
2023-01-10T14:14:23.289Z,100424.08
2023-01-10T14:16:27.688Z,100423.13
2023-01-10T14:18:32.107Z,100423.45
2023-01-10T14:20:36.591Z,100428.49
2023-01-10T14:22:41.114Z,100427.34
2023-01-10T14:24:45.543Z,100424.45
2023-01-10T14:26:50.198Z,100431.16
2023-01-10T14:28:54.641Z,100439.88
2023-01-10T14:30:59.067Z,100440.45
2023-01-10T14:33:24.429Z,100440.72
2023-01-10T14:35:28.894Z,100442.72
2023-01-10T14:37:33.288Z,100444.85
2023-01-10T14:39:37.707Z,100449.45
2023-01-10T14:41:42.126Z,100448.01
2023-01-10T14:43:46.545Z,100450.25
2023-01-10T14:45:50.969Z,100451.95
2023-01-10T14:47:55.419Z,100450.94
2023-01-10T14:49:59.806Z,100450.98
2023-01-10T14:52:04.316Z,100453.39
2023-01-10T14:54:08.739Z,100452.76
2023-01-10T14:56:13.201Z,100463.7
2023-01-10T14:58:17.652Z,100466.32
2023-01-10T15:00:22.090Z,100465
2023-01-10T15:02:26.599Z,100460.91
2023-01-10T15:04:31.161Z,100465.06
2023-01-10T15:06:35.662Z,100468.83
2023-01-10T15:08:40.095Z,100466.38
2023-01-10T15:10:44.603Z,100464.66
2023-01-10T15:12:49.215Z,100468.61
2023-01-10T15:14:53.635Z,100469.16
2023-01-10T15:16:58.295Z,100474.13
2023-01-10T15:19:02.712Z,100476.36
2023-01-10T15:21:07.148Z,100478.73
2023-01-10T15:23:11.573Z,100490.66
2023-01-10T15:25:16.049Z,100489
2023-01-10T15:27:20.486Z,100488.08
2023-01-10T15:29:24.937Z,100488.22
2023-01-10T15:31:29.596Z,100489.55
2023-01-10T15:33:34.170Z,100493.73
2023-01-10T15:35:38.598Z,100499.28
2023-01-10T15:37:43.020Z,100504.8
2023-01-10T15:39:47.421Z,100507.28
2023-01-10T15:41:51.810Z,100509.88
2023-01-10T15:43:56.247Z,100506.27
2023-01-10T15:46:00.635Z,100500.09
2023-01-10T15:48:05.128Z,100500.41
2023-01-10T15:50:09.607Z,100513.78
2023-01-10T15:52:14.039Z,100509.45
2023-01-10T15:54:18.576Z,100516.33
2023-01-10T15:56:23.304Z,100513.57
2023-01-10T15:58:27.811Z,100510.18
2023-01-10T16:00:32.393Z,100515.52
2023-01-10T16:02:37.641Z,100521.41
2023-01-10T16:04:42.320Z,100523.05
2023-01-10T16:06:46.697Z,100524.63
2023-01-10T16:08:51.176Z,100528.19
2023-01-10T16:10:55.609Z,100527.51
2023-01-10T16:13:00.126Z,100526.63
2023-01-10T16:15:04.551Z,100529
2023-01-10T16:17:08.998Z,100539.13
2023-01-10T16:19:15.778Z,100533.98
2023-01-10T16:21:20.265Z,100533.61
2023-01-10T16:23:24.707Z,100532.16
2023-01-10T16:25:29.170Z,100533.53
2023-01-10T16:27:33.630Z,100536.52
2023-01-10T16:29:38.076Z,100535.75
2023-01-10T16:31:42.730Z,100532.98
2023-01-10T16:33:47.324Z,100532.09
2023-01-10T16:35:51.763Z,100533.3
2023-01-10T16:37:56.252Z,100536.79
2023-01-10T16:40:00.759Z,100543.95
2023-01-10T16:42:05.244Z,100550.13
2023-01-10T16:44:09.796Z,100549.96
2023-01-10T16:46:14.363Z,100550.88
2023-01-10T16:48:19.136Z,100549.73
2023-01-10T16:50:23.582Z,100550.66
2023-01-10T16:52:28.047Z,100545.17
2023-01-10T16:54:32.542Z,100542.33
2023-01-10T16:56:37.012Z,100541.8
2023-01-10T16:58:41.527Z,100549.16
2023-01-10T17:00:46.187Z,100552.56
2023-01-10T17:02:50.884Z,100555.72
2023-01-10T17:04:55.405Z,100560.08
2023-01-10T17:06:59.808Z,100571.81
2023-01-10T17:09:04.315Z,100579.61
2023-01-10T17:11:08.764Z,100583.34
2023-01-10T17:13:13.251Z,100590.67
2023-01-10T17:15:17.701Z,100596.2
2023-01-10T17:17:22.152Z,100595.8
2023-01-10T17:19:26.567Z,100601.23
2023-01-10T17:21:31.250Z,100598.78
2023-01-10T17:23:35.644Z,100596.95
2023-01-10T17:25:40.079Z,100603.38
2023-01-10T17:27:44.538Z,100601.66
2023-01-10T17:29:48.965Z,100606.94
2023-01-10T17:31:53.671Z,100602.74
2023-01-10T17:33:58.159Z,100594.06
2023-01-10T17:36:02.577Z,100600.07
2023-01-10T17:38:07.020Z,100601.16
2023-01-10T17:40:11.534Z,100590.55
2023-01-10T17:42:18.858Z,100603.58
2023-01-10T17:44:23.356Z,100600.13
2023-01-10T17:46:27.785Z,100601.7
2023-01-10T17:48:32.229Z,100602.11
2023-01-10T17:50:36.812Z,100604.4
2023-01-10T17:52:41.230Z,100602.38
2023-01-10T17:54:45.671Z,100603.09
2023-01-10T17:56:50.091Z,100607.07
2023-01-10T17:58:54.535Z,100601.44
2023-01-10T18:00:59.199Z,100603.65
2023-01-10T18:03:04.114Z,100612
2023-01-10T18:05:08.769Z,100612.84
2023-01-10T18:07:14.158Z,100617.76
2023-01-10T18:09:18.545Z,100624.61
2023-01-10T18:11:23.009Z,100622.67
2023-01-10T18:13:27.441Z,100629.45
2023-01-10T18:15:32.035Z,100630.37
2023-01-10T18:17:36.576Z,100629.84
2023-01-10T18:19:41.075Z,100628.02
2023-01-10T18:21:45.496Z,100624.48
2023-01-10T18:23:50.037Z,100624.5
2023-01-10T18:25:54.580Z,100626.78
2023-01-10T18:27:59.046Z,100629.09
2023-01-10T18:30:03.788Z,100625.52
2023-01-10T18:32:08.242Z,100624.09
2023-01-10T18:34:12.673Z,100625.7
2023-01-10T18:36:17.239Z,100630.2
2023-01-10T18:38:21.645Z,100629.89
2023-01-10T18:40:26.099Z,100629.38
2023-01-10T18:42:30.560Z,100635.97
2023-01-10T18:44:34.987Z,100640.17
2023-01-10T18:46:39.410Z,100643.28
2023-01-10T18:48:43.948Z,100639.54
2023-01-10T18:50:48.399Z,100640.95
2023-01-10T18:52:52.864Z,100642.52
2023-01-10T18:54:57.381Z,100646.01
2023-01-10T18:57:03.288Z,100648.53
2023-01-10T18:59:07.755Z,100646.06
2023-01-10T19:01:12.356Z,100652.63
2023-01-10T19:03:16.989Z,100647.5
2023-01-10T19:05:21.432Z,100655.02
2023-01-10T19:07:25.932Z,100648.54
2023-01-10T19:09:30.310Z,100648.5
2023-01-10T19:11:34.707Z,100657.41
2023-01-10T19:13:39.136Z,100660.36
2023-01-10T19:15:43.762Z,100658.31
2023-01-10T19:17:48.204Z,100655.77
2023-01-10T19:19:52.703Z,100653.92
2023-01-10T19:21:57.194Z,100658.09
2023-01-10T19:24:01.659Z,100658.41
2023-01-10T19:26:06.394Z,100657.54
2023-01-10T19:28:10.898Z,100656.87
2023-01-10T19:30:15.339Z,100660.06
2023-01-10T19:32:19.777Z,100655.19
2023-01-10T19:34:24.215Z,100655.66
2023-01-10T19:36:28.670Z,100655.97
2023-01-10T19:38:33.410Z,100648.66
2023-01-10T19:40:37.877Z,100647.36
2023-01-10T19:42:42.305Z,100648.83
2023-01-10T19:44:46.733Z,100651.7
2023-01-10T19:46:51.280Z,100649.17
2023-01-10T19:48:55.721Z,100653.47
2023-01-10T19:51:00.145Z,100650.08
2023-01-10T19:53:04.551Z,100662.13
2023-01-10T19:55:08.954Z,100662.13
2023-01-10T19:57:13.381Z,100660.77
2023-01-10T19:59:17.857Z,100664.33
2023-01-10T20:01:22.455Z,100667.95
2023-01-10T20:03:27.000Z,100669.28
2023-01-10T20:05:31.425Z,100672.53
2023-01-10T20:07:35.892Z,100670.83
2023-01-10T20:09:40.281Z,100669.63
2023-01-10T20:11:44.681Z,100671.18
2023-01-10T20:13:49.093Z,100671.19
2023-01-10T20:15:53.841Z,100672.73
2023-01-10T20:17:58.363Z,100675.58
2023-01-10T20:20:02.793Z,100679.58
2023-01-10T20:22:07.250Z,100680.99
2023-01-10T20:24:11.771Z,100681.78
2023-01-10T20:26:16.219Z,100682.03
2023-01-10T20:28:20.709Z,100684.02
2023-01-10T20:30:25.226Z,100683.13
2023-01-10T20:32:29.599Z,100682.29
2023-01-10T20:34:34.007Z,100680.04
2023-01-10T20:36:38.421Z,100682.57
2023-01-10T20:38:42.838Z,100684.19
2023-01-10T20:40:47.312Z,100677.2
2023-01-10T20:42:51.866Z,100672.94
2023-01-10T20:44:56.341Z,100675.58
2023-01-10T20:47:00.763Z,100670
2023-01-10T20:49:05.200Z,100672.4
2023-01-10T20:51:09.633Z,100672.75
2023-01-10T20:53:14.054Z,100666.95
2023-01-10T20:55:18.513Z,100663.98
2023-01-10T20:57:22.933Z,100668.83
2023-01-10T20:59:27.352Z,100668
2023-01-10T21:01:36.740Z,100669.2
2023-01-10T21:03:41.439Z,100668.28
2023-01-10T21:05:45.906Z,100665.89
2023-01-10T21:07:50.333Z,100664.73
2023-01-10T21:09:54.754Z,100663.77
2023-01-10T21:12:22.370Z,100658.11
2023-01-10T21:14:30.234Z,100655.82
2023-01-10T21:16:34.635Z,100655.56
2023-01-10T21:18:39.061Z,100660.42
2023-01-10T21:20:43.493Z,100656.45
2023-01-10T21:22:48.231Z,100658.2
2023-01-10T21:24:52.996Z,100657.13
2023-01-10T21:26:57.428Z,100658.53
2023-01-10T21:29:01.839Z,100662.46
2023-01-10T21:31:06.474Z,100661.56
2023-01-10T21:33:10.961Z,100658.38
2023-01-10T21:35:15.379Z,100660.59
2023-01-10T21:37:19.859Z,100666.2
2023-01-10T21:39:24.302Z,100661.52
2023-01-10T21:41:30.144Z,100659.61
2023-01-10T21:43:34.539Z,100660.84
2023-01-10T21:45:38.966Z,100663.64
2023-01-10T21:47:43.479Z,100664.7
2023-01-10T21:49:47.889Z,100662.41
2023-01-10T21:51:52.309Z,100659.81
2023-01-10T21:53:56.829Z,100660.84
2023-01-10T21:56:01.280Z,100660.23
2023-01-10T21:58:05.710Z,100665.55
2023-01-10T22:00:10.145Z,100666.59
2023-01-10T22:02:14.671Z,100663.38
2023-01-10T22:04:19.259Z,100663.34
2023-01-10T22:06:24.014Z,100656.23
2023-01-10T22:08:28.496Z,100659.56
2023-01-10T22:10:32.903Z,100657.13
2023-01-10T22:12:37.332Z,100653.48
2023-01-10T22:14:41.749Z,100659.22
2023-01-10T22:16:46.257Z,100656.12
2023-01-10T22:18:50.702Z,100659.05
2023-01-10T22:20:55.117Z,100661.84
2023-01-10T22:22:59.632Z,100656.21
2023-01-10T22:25:04.102Z,100657.58
2023-01-10T22:27:08.559Z,100657.02
2023-01-10T22:29:13.047Z,100654.39
2023-01-10T22:31:17.591Z,100651.56
2023-01-10T22:33:22.073Z,100651.67
2023-01-10T22:35:26.525Z,100650.18
2023-01-10T22:37:30.938Z,100647.14
2023-01-10T22:39:35.373Z,100641.58
2023-01-10T22:41:39.854Z,100641
2023-01-10T22:43:44.372Z,100645.85
2023-01-10T22:45:48.930Z,100645.03
2023-01-10T22:47:53.484Z,100646.92
2023-01-10T22:49:57.883Z,100649.3
2023-01-10T22:52:02.280Z,100650.02
2023-01-10T22:54:06.735Z,100648.95
2023-01-10T22:56:11.380Z,100648.95
2023-01-10T22:58:15.825Z,100650.87
2023-01-10T23:00:20.388Z,100647.6
2023-01-10T23:02:24.857Z,100646.92
2023-01-10T23:04:32.474Z,100646.25
2023-01-10T23:06:37.004Z,100652.36
2023-01-10T23:08:41.552Z,100649.23
2023-01-10T23:10:46.061Z,100653.47
2023-01-10T23:12:50.604Z,100650.36
2023-01-10T23:14:55.127Z,100646.61
2023-01-10T23:16:59.697Z,100644.98
2023-01-10T23:19:04.445Z,100647.34
2023-01-10T23:21:08.933Z,100646.25
2023-01-10T23:23:13.707Z,100647.14
2023-01-10T23:25:18.153Z,100642.34
2023-01-10T23:27:22.667Z,100640.77
2023-01-10T23:29:27.114Z,100637.56
2023-01-10T23:31:31.941Z,100637.13
2023-01-10T23:33:36.687Z,100635.73
2023-01-10T23:35:41.259Z,100634.06
2023-01-10T23:37:45.693Z,100627.11
2023-01-10T23:39:50.149Z,100624.07
2023-01-10T23:41:54.628Z,100625.78
2023-01-10T23:43:59.086Z,100624.28
2023-01-10T23:46:03.792Z,100625.09
2023-01-10T23:48:08.434Z,100627.9
2023-01-10T23:50:13.074Z,100624.8
2023-01-10T23:52:17.492Z,100623.41
2023-01-10T23:54:21.976Z,100621.91
2023-01-10T23:56:26.369Z,100620.14
2023-01-10T23:58:30.768Z,100616.45
